createdAt,value
2019-05-18T00:00:59.935Z,953.69
2019-05-18T00:01:59.946Z,953.72
2019-05-18T00:02:59.929Z,953.71
2019-05-18T00:03:59.894Z,953.69
2019-05-18T00:04:59.893Z,953.68
2019-05-18T00:05:59.882Z,953.70
2019-05-18T00:06:59.870Z,953.70
2019-05-18T00:07:59.877Z,953.75
2019-05-18T00:08:59.876Z,953.74
2019-05-18T00:09:59.867Z,953.76
2019-05-18T00:10:59.822Z,953.70
2019-05-18T00:11:59.803Z,953.69
2019-05-18T00:12:59.834Z,953.70
2019-05-18T00:13:59.804Z,953.70
2019-05-18T00:14:59.805Z,953.66
2019-05-18T00:15:59.760Z,953.63
2019-05-18T00:16:59.754Z,953.67
2019-05-18T00:17:59.759Z,953.66
2019-05-18T00:18:59.766Z,953.68
2019-05-18T00:19:59.740Z,953.63
2019-05-18T00:20:59.706Z,953.68
2019-05-18T00:21:59.699Z,953.68
2019-05-18T00:22:59.682Z,953.67
2019-05-18T00:23:59.684Z,953.65
2019-05-18T00:24:59.684Z,953.59
2019-05-18T00:25:59.669Z,953.59
2019-05-18T00:26:59.675Z,953.61
2019-05-18T00:27:59.638Z,953.59
2019-05-18T00:28:59.648Z,953.58
2019-05-18T00:29:59.611Z,953.48
2019-05-18T00:30:59.608Z,953.51
2019-05-18T00:31:59.609Z,953.55
2019-05-18T00:32:59.615Z,953.50
2019-05-18T00:33:59.566Z,953.53
2019-05-18T00:34:59.553Z,953.55
2019-05-18T00:35:59.544Z,953.54
2019-05-18T00:36:59.541Z,953.50
2019-05-18T00:37:59.531Z,953.52
2019-05-18T00:38:59.504Z,953.53
2019-05-18T00:39:59.500Z,953.50
2019-05-18T00:40:59.513Z,953.51
2019-05-18T00:41:59.482Z,953.55
2019-05-18T00:42:59.484Z,953.54
2019-05-18T00:43:59.471Z,953.54
2019-05-18T00:44:59.481Z,953.54
2019-05-18T00:45:59.425Z,953.50
2019-05-18T00:46:59.426Z,953.51
2019-05-18T00:47:59.422Z,953.49
2019-05-18T00:48:59.403Z,953.56
2019-05-18T00:49:59.384Z,953.54
2019-05-18T00:50:59.383Z,953.51
2019-05-18T00:51:59.359Z,953.58
2019-05-18T00:52:59.345Z,953.47
2019-05-18T00:53:59.359Z,953.46
2019-05-18T00:54:59.338Z,953.50
2019-05-18T00:55:59.341Z,953.51
2019-05-18T00:56:59.301Z,953.54
2019-05-18T00:57:59.289Z,953.49
2019-05-18T00:58:59.290Z,953.49
2019-05-18T00:59:59.283Z,953.51
2019-05-18T01:00:59.290Z,953.50
2019-05-18T01:01:59.247Z,953.53
2019-05-18T01:02:59.257Z,953.48
2019-05-18T01:03:59.227Z,953.50
2019-05-18T01:04:59.237Z,953.51
2019-05-18T01:05:59.215Z,953.47
2019-05-18T01:06:59.219Z,953.44
2019-05-18T01:07:59.219Z,953.47
2019-05-18T01:08:59.164Z,953.47
2019-05-18T01:09:59.161Z,953.50
2019-05-18T01:10:59.162Z,953.43
2019-05-18T01:11:59.155Z,953.48
2019-05-18T01:12:59.152Z,953.48
2019-05-18T01:13:59.114Z,953.47
2019-05-18T01:14:59.100Z,953.44
2019-05-18T01:15:59.103Z,953.40
2019-05-18T01:16:59.101Z,953.44
2019-05-18T01:18:02.180Z,953.41
2019-05-18T01:18:59.057Z,953.42
2019-05-18T01:19:59.044Z,953.41
2019-05-18T01:20:59.033Z,953.37
2019-05-18T01:21:59.056Z,953.31
2019-05-18T01:22:59.024Z,953.32
2019-05-18T01:23:59.026Z,953.35
2019-05-18T01:24:58.993Z,953.37
2019-05-18T01:25:58.974Z,953.38
2019-05-18T01:26:58.968Z,953.37
2019-05-18T01:27:58.959Z,953.41
2019-05-18T01:28:58.976Z,953.36
2019-05-18T01:29:58.955Z,953.42
2019-05-18T01:30:58.924Z,953.40
2019-05-18T01:31:58.905Z,953.38
2019-05-18T01:32:58.902Z,953.38
2019-05-18T01:33:58.903Z,953.32
2019-05-18T01:34:58.916Z,953.33
2019-05-18T01:35:58.888Z,953.31
2019-05-18T01:36:58.856Z,953.31
2019-05-18T01:37:58.840Z,953.26
2019-05-18T01:38:58.829Z,953.32
2019-05-18T01:39:58.833Z,953.30
2019-05-18T01:40:58.859Z,953.32
2019-05-18T01:41:58.863Z,953.27
2019-05-18T01:42:58.807Z,953.27
2019-05-18T01:43:58.769Z,953.32
2019-05-18T01:44:58.775Z,953.32
2019-05-18T01:45:58.786Z,953.30
2019-05-18T01:46:58.769Z,953.34
2019-05-18T01:48:12.699Z,953.30
2019-05-18T01:48:59.719Z,953.39
2019-05-18T01:49:58.709Z,953.36
2019-05-18T01:50:58.729Z,953.40
2019-05-18T01:51:58.743Z,953.47
2019-05-18T01:52:58.693Z,953.47
2019-05-18T01:53:58.698Z,953.44
2019-05-18T01:54:58.647Z,953.41
2019-05-18T01:55:58.638Z,953.40
2019-05-18T01:56:58.673Z,953.40
2019-05-18T01:57:58.638Z,953.41
2019-05-18T01:58:58.600Z,953.42
2019-05-18T01:59:58.606Z,953.36
2019-05-18T02:00:58.590Z,953.40
2019-05-18T02:01:58.582Z,953.43
2019-05-18T02:02:58.576Z,953.35
2019-05-18T02:03:58.582Z,953.30
2019-05-18T02:04:58.569Z,953.35
2019-05-18T02:05:58.538Z,953.31
2019-05-18T02:06:58.513Z,953.36
2019-05-18T02:07:58.521Z,953.32
2019-05-18T02:08:58.508Z,953.35
2019-05-18T02:09:58.516Z,953.31
2019-05-18T02:10:58.484Z,953.30
2019-05-18T02:11:58.482Z,953.31
2019-05-18T02:12:58.446Z,953.32
2019-05-18T02:13:58.474Z,953.29
2019-05-18T02:14:58.443Z,953.24
2019-05-18T02:15:58.445Z,953.24
2019-05-18T02:16:58.404Z,953.24
2019-05-18T02:17:58.398Z,953.23
2019-05-18T02:18:58.393Z,953.26
2019-05-18T02:19:58.378Z,953.27
2019-05-18T02:20:58.405Z,953.24
2019-05-18T02:21:58.375Z,953.24
2019-05-18T02:22:58.337Z,953.22
2019-05-18T02:23:58.326Z,953.24
2019-05-18T02:24:58.316Z,953.21
2019-05-18T02:25:58.314Z,953.24
2019-05-18T02:26:58.321Z,953.27
2019-05-18T02:27:58.274Z,953.23
2019-05-18T02:28:58.265Z,953.20
2019-05-18T02:29:58.264Z,953.26
2019-05-18T02:30:58.256Z,953.22
2019-05-18T02:31:58.253Z,953.25
2019-05-18T02:32:58.228Z,953.25
2019-05-18T02:33:58.228Z,953.21
2019-05-18T02:34:58.205Z,953.20
2019-05-18T02:35:58.237Z,953.20
2019-05-18T02:36:58.210Z,953.21
2019-05-18T02:37:58.202Z,953.20
2019-05-18T02:38:58.195Z,953.20
2019-05-18T02:39:58.152Z,953.27
2019-05-18T02:40:58.136Z,953.21
2019-05-18T02:41:58.141Z,953.26
2019-05-18T02:42:58.127Z,953.22
2019-05-18T02:43:58.138Z,953.26
2019-05-18T02:44:58.134Z,953.26
2019-05-18T02:45:58.073Z,953.21
2019-05-18T02:46:58.061Z,953.19
2019-05-18T02:47:58.083Z,953.21
2019-05-18T02:48:58.057Z,953.20
2019-05-18T02:49:58.030Z,953.20
2019-05-18T02:50:58.027Z,953.26
2019-05-18T02:51:58.007Z,953.21
2019-05-18T02:52:58.012Z,953.24
2019-05-18T02:53:58.007Z,953.23
2019-05-18T02:54:57.986Z,953.18
2019-05-18T02:55:57.959Z,953.18
2019-05-18T02:56:57.956Z,953.24
2019-05-18T02:57:57.953Z,953.21
2019-05-18T02:58:57.939Z,953.16
2019-05-18T02:59:57.936Z,953.19
2019-05-18T03:00:57.925Z,953.18
2019-05-18T03:01:57.895Z,953.22
2019-05-18T03:02:57.899Z,953.19
2019-05-18T03:03:57.880Z,953.18
2019-05-18T03:04:57.879Z,953.21
2019-05-18T03:05:57.863Z,953.25
2019-05-18T03:06:57.861Z,953.21
2019-05-18T03:07:57.826Z,953.27
2019-05-18T03:08:57.836Z,953.25
2019-05-18T03:09:57.804Z,953.21
2019-05-18T03:10:57.810Z,953.22
2019-05-18T03:11:57.811Z,953.20
2019-05-18T03:12:57.813Z,953.18
2019-05-18T03:13:57.766Z,953.20
2019-05-18T03:14:57.761Z,953.16
2019-05-18T03:15:57.749Z,953.12
2019-05-18T03:16:57.740Z,953.16
2019-05-18T03:17:57.724Z,953.21
2019-05-18T03:19:07.467Z,953.16
2019-05-18T03:19:57.705Z,953.23
2019-05-18T03:20:57.677Z,953.16
2019-05-18T03:22:00.832Z,953.21
2019-05-18T03:22:57.673Z,953.17
2019-05-18T03:23:57.696Z,953.17
2019-05-18T03:24:57.674Z,953.21
2019-05-18T03:25:57.635Z,953.20
2019-05-18T03:26:57.614Z,953.26
2019-05-18T03:27:57.604Z,953.34
2019-05-18T03:28:58.339Z,953.30
2019-05-18T03:29:57.604Z,953.27
2019-05-18T03:30:57.601Z,953.25
2019-05-18T03:31:57.608Z,953.30
2019-05-18T03:32:57.556Z,953.25
2019-05-18T03:33:57.639Z,953.24
2019-05-18T03:34:58.387Z,953.28
2019-05-18T03:35:57.546Z,953.26
2019-05-18T03:36:57.544Z,953.30
2019-05-18T03:37:57.508Z,953.30
2019-05-18T03:38:57.477Z,953.36
2019-05-18T03:39:57.482Z,953.35
2019-05-18T03:40:57.493Z,953.35
2019-05-18T03:41:57.441Z,953.39
2019-05-18T03:42:57.440Z,953.43
2019-05-18T03:43:57.438Z,953.36
2019-05-18T03:44:57.428Z,953.39
2019-05-18T03:45:57.414Z,953.38
2019-05-18T03:46:57.434Z,953.42
2019-05-18T03:47:57.449Z,953.38
2019-05-18T03:48:57.367Z,953.43
2019-05-18T03:49:57.357Z,953.40
2019-05-18T03:50:57.347Z,953.41
2019-05-18T03:51:57.359Z,953.39
2019-05-18T03:52:57.370Z,953.33
2019-05-18T03:53:57.321Z,953.38
2019-05-18T03:54:57.309Z,953.39
2019-05-18T03:55:57.311Z,953.41
2019-05-18T03:56:57.302Z,953.40
2019-05-18T03:57:57.281Z,953.38
2019-05-18T03:58:57.258Z,953.39
2019-05-18T03:59:57.255Z,953.38
2019-05-18T04:00:57.233Z,953.42
2019-05-18T04:01:57.225Z,953.44
2019-05-18T04:02:57.246Z,953.51
2019-05-18T04:03:57.221Z,953.50
2019-05-18T04:04:57.224Z,953.48
2019-05-18T04:05:57.174Z,953.46
2019-05-18T04:06:57.166Z,953.48
2019-05-18T04:07:57.207Z,953.48
2019-05-18T04:08:57.151Z,953.53
2019-05-18T04:09:57.163Z,953.51
2019-05-18T04:10:57.154Z,953.55
2019-05-18T04:11:57.102Z,953.52
2019-05-18T04:12:57.116Z,953.57
2019-05-18T04:13:57.130Z,953.60
2019-05-18T04:14:57.097Z,953.52
2019-05-18T04:15:57.090Z,953.54
2019-05-18T04:16:57.055Z,953.55
2019-05-18T04:17:57.036Z,953.59
2019-05-18T04:18:57.042Z,953.54
2019-05-18T04:19:57.057Z,953.62
2019-05-18T04:20:57.024Z,953.60
2019-05-18T04:21:56.994Z,953.63
2019-05-18T04:22:56.982Z,953.62
2019-05-18T04:23:56.994Z,953.62
2019-05-18T04:24:56.971Z,953.60
2019-05-18T04:25:56.956Z,953.67
2019-05-18T04:26:56.962Z,953.63
2019-05-18T04:27:56.928Z,953.63
2019-05-18T04:28:56.932Z,953.65
2019-05-18T04:29:56.920Z,953.66
2019-05-18T04:30:56.908Z,953.61
2019-05-18T04:31:56.897Z,953.65
2019-05-18T04:32:56.895Z,953.68
2019-05-18T04:33:56.866Z,953.65
2019-05-18T04:34:56.862Z,953.69
2019-05-18T04:35:56.837Z,953.71
2019-05-18T04:36:56.834Z,953.67
2019-05-18T04:37:56.835Z,953.65
2019-05-18T04:38:56.830Z,953.72
2019-05-18T04:39:56.801Z,953.70
2019-05-18T04:40:56.778Z,953.75
2019-05-18T04:41:56.765Z,953.67
2019-05-18T04:42:56.772Z,953.69
2019-05-18T04:43:56.784Z,953.73
2019-05-18T04:44:56.765Z,953.71
2019-05-18T04:45:56.726Z,953.68
2019-05-18T04:46:56.709Z,953.76
2019-05-18T04:47:56.703Z,953.77
2019-05-18T04:48:56.702Z,953.69
2019-05-18T04:50:05.031Z,953.69
2019-05-18T04:50:56.711Z,953.65
2019-05-18T04:51:56.654Z,953.67
2019-05-18T04:52:56.642Z,953.72
2019-05-18T04:53:56.645Z,953.71
2019-05-18T04:54:56.653Z,953.71
2019-05-18T04:55:56.634Z,953.74
2019-05-18T04:56:56.604Z,953.70
2019-05-18T04:57:56.598Z,953.76
2019-05-18T04:58:56.584Z,953.68
2019-05-18T04:59:56.585Z,953.70
2019-05-18T05:00:56.572Z,953.70
2019-05-18T05:01:56.569Z,953.70
2019-05-18T05:02:56.544Z,953.70
2019-05-18T05:03:56.527Z,953.68
2019-05-18T05:04:56.913Z,953.70
2019-05-18T05:05:56.526Z,953.64
2019-05-18T05:06:56.503Z,953.70
2019-05-18T05:07:56.532Z,953.69
2019-05-18T05:08:56.507Z,953.67
2019-05-18T05:09:56.466Z,953.69
2019-05-18T05:10:56.443Z,953.71
2019-05-18T05:11:56.463Z,953.77
2019-05-18T05:12:56.433Z,953.71
2019-05-18T05:13:56.432Z,953.73
2019-05-18T05:14:56.395Z,953.64
2019-05-18T05:15:56.383Z,953.68
2019-05-18T05:16:56.877Z,953.69
2019-05-18T05:17:56.388Z,953.63
2019-05-18T05:18:56.389Z,953.70
2019-05-18T05:19:56.340Z,953.74
2019-05-18T05:20:56.329Z,953.72
2019-05-18T05:21:56.340Z,953.73
2019-05-18T05:22:56.320Z,953.69
2019-05-18T05:23:56.324Z,953.72
2019-05-18T05:24:56.311Z,953.69
2019-05-18T05:25:56.273Z,953.71
2019-05-18T05:26:56.265Z,953.70
2019-05-18T05:27:56.264Z,953.65
2019-05-18T05:28:56.257Z,953.66
2019-05-18T05:29:56.267Z,953.67
2019-05-18T05:30:56.258Z,953.68
2019-05-18T05:31:56.214Z,953.72
2019-05-18T05:32:56.221Z,953.71
2019-05-18T05:33:56.184Z,953.77
2019-05-18T05:34:56.198Z,953.67
2019-05-18T05:35:56.169Z,953.73
2019-05-18T05:36:56.182Z,953.65
2019-05-18T05:37:56.155Z,953.64
2019-05-18T05:38:56.133Z,953.72
2019-05-18T05:39:56.122Z,953.70
2019-05-18T05:40:56.132Z,953.67
2019-05-18T05:41:56.121Z,953.71
2019-05-18T05:42:56.141Z,953.69
2019-05-18T05:43:56.087Z,953.67
2019-05-18T05:44:56.061Z,953.71
2019-05-18T05:45:56.064Z,953.74
2019-05-18T05:46:56.060Z,953.71
2019-05-18T05:47:56.065Z,953.75
2019-05-18T05:48:56.381Z,953.75
2019-05-18T05:49:56.009Z,953.74
2019-05-18T05:50:56.009Z,953.73
2019-05-18T05:51:55.999Z,953.71
2019-05-18T05:52:55.996Z,953.75
2019-05-18T05:53:56.008Z,953.73
2019-05-18T05:54:55.960Z,953.79
2019-05-18T05:55:55.948Z,953.81
2019-05-18T05:56:55.934Z,953.74
2019-05-18T05:57:55.944Z,953.77
2019-05-18T05:58:55.933Z,953.82
2019-05-18T05:59:55.925Z,953.83
2019-05-18T06:00:55.887Z,953.82
2019-05-18T06:01:55.881Z,953.84
2019-05-18T06:02:55.870Z,953.83
2019-05-18T06:03:55.878Z,953.85
2019-05-18T06:04:55.859Z,953.92
2019-05-18T06:05:55.830Z,953.85
2019-05-18T06:06:55.818Z,953.85
2019-05-18T06:07:55.802Z,953.86
2019-05-18T06:08:55.798Z,953.91
2019-05-18T06:09:55.841Z,953.85
2019-05-18T06:10:55.787Z,953.86
2019-05-18T06:11:55.760Z,953.86
2019-05-18T06:12:55.756Z,953.88
2019-05-18T06:13:55.738Z,953.89
2019-05-18T06:14:55.739Z,953.95
2019-05-18T06:15:55.767Z,953.93
2019-05-18T06:16:55.724Z,953.94
2019-05-18T06:17:55.695Z,953.95
2019-05-18T06:18:55.681Z,953.94
2019-05-18T06:19:55.687Z,953.93
2019-05-18T06:20:55.684Z,953.92
2019-05-18T06:21:55.674Z,953.90
2019-05-18T06:22:55.666Z,953.95
2019-05-18T06:23:55.640Z,953.99
2019-05-18T06:24:55.619Z,953.97
2019-05-18T06:25:55.627Z,954.01
2019-05-18T06:26:55.610Z,953.96
2019-05-18T06:27:55.600Z,953.94
2019-05-18T06:28:55.607Z,953.97
2019-05-18T06:29:55.559Z,953.99
2019-05-18T06:30:55.548Z,953.94
2019-05-18T06:31:55.576Z,953.96
2019-05-18T06:32:55.544Z,953.95
2019-05-18T06:33:55.531Z,953.99
2019-05-18T06:34:55.540Z,953.95
2019-05-18T06:35:55.491Z,953.95
2019-05-18T06:36:56.069Z,953.95
2019-05-18T06:37:55.477Z,953.91
2019-05-18T06:38:55.479Z,953.95
2019-05-18T06:39:55.464Z,953.96
2019-05-18T06:40:55.459Z,953.98
2019-05-18T06:41:55.445Z,954.00
2019-05-18T06:42:55.416Z,954.03
2019-05-18T06:43:58.340Z,954.04
2019-05-18T06:44:55.408Z,953.98
2019-05-18T06:45:55.399Z,953.97
2019-05-18T06:46:55.380Z,953.99
2019-05-18T06:47:55.369Z,953.97
2019-05-18T06:48:55.343Z,954.00
2019-05-18T06:49:55.359Z,953.97
2019-05-18T06:51:06.817Z,953.94
2019-05-18T06:51:55.345Z,953.92
2019-05-18T06:52:55.308Z,953.93
2019-05-18T06:53:55.283Z,953.97
2019-05-18T06:54:55.293Z,953.93
2019-05-18T06:55:55.282Z,953.93
2019-05-18T06:56:55.295Z,953.90
2019-05-18T06:57:56.727Z,953.93
2019-05-18T06:58:55.227Z,953.90
2019-05-18T06:59:55.236Z,953.91
2019-05-18T07:00:55.222Z,953.93
2019-05-18T07:01:55.209Z,953.93
2019-05-18T07:02:55.207Z,953.90
2019-05-18T07:03:55.186Z,953.86
2019-05-18T07:04:55.160Z,953.92
2019-05-18T07:05:55.156Z,953.89
2019-05-18T07:06:55.173Z,953.86
2019-05-18T07:07:55.146Z,953.92
2019-05-18T07:08:55.153Z,953.91
2019-05-18T07:09:55.107Z,953.99
2019-05-18T07:10:55.095Z,953.97
2019-05-18T07:11:56.238Z,953.99
2019-05-18T07:12:55.095Z,953.97
2019-05-18T07:13:55.084Z,953.93
2019-05-18T07:14:55.047Z,953.93
2019-05-18T07:15:55.084Z,953.88
2019-05-18T07:16:55.023Z,953.92
2019-05-18T07:17:55.016Z,953.84
2019-05-18T07:18:55.041Z,953.89
2019-05-18T07:19:55.010Z,953.86
2019-05-18T07:20:54.985Z,953.91
2019-05-18T07:21:54.978Z,953.87
2019-05-18T07:22:54.982Z,953.83
2019-05-18T07:23:55.027Z,953.85
2019-05-18T07:24:54.949Z,953.89
2019-05-18T07:25:54.944Z,953.90
2019-05-18T07:26:54.917Z,953.89
2019-05-18T07:27:54.915Z,953.86
2019-05-18T07:28:54.917Z,953.90
2019-05-18T07:29:54.890Z,953.91
2019-05-18T07:30:54.918Z,953.87
2019-05-18T07:31:54.856Z,953.88
2019-05-18T07:32:54.840Z,953.87
2019-05-18T07:33:54.828Z,953.84
2019-05-18T07:34:54.914Z,953.91
2019-05-18T07:35:54.837Z,953.89
2019-05-18T07:36:54.815Z,953.85
2019-05-18T07:37:54.786Z,953.89
2019-05-18T07:38:54.775Z,953.86
2019-05-18T07:39:54.794Z,953.86
2019-05-18T07:40:54.854Z,953.88
2019-05-18T07:41:54.754Z,953.87
2019-05-18T07:42:54.725Z,953.86
2019-05-18T07:43:54.720Z,953.82
2019-05-18T07:44:54.777Z,953.83
2019-05-18T07:45:54.726Z,953.79
2019-05-18T07:46:54.706Z,953.84
2019-05-18T07:47:54.690Z,953.79
2019-05-18T07:48:54.690Z,953.79
2019-05-18T07:49:54.660Z,953.76
2019-05-18T07:50:54.659Z,953.82
2019-05-18T07:51:54.658Z,953.83
2019-05-18T07:52:54.622Z,953.80
2019-05-18T07:53:54.620Z,953.85
2019-05-18T07:54:54.636Z,953.82
2019-05-18T07:55:54.642Z,953.80
2019-05-18T07:56:54.573Z,953.76
2019-05-18T07:57:54.569Z,953.82
2019-05-18T07:58:54.569Z,953.84
2019-05-18T07:59:54.553Z,953.83
2019-05-18T08:00:54.562Z,953.82
2019-05-18T08:01:54.521Z,953.85
2019-05-18T08:02:54.525Z,953.83
2019-05-18T08:03:54.510Z,953.84
2019-05-18T08:04:54.522Z,953.83
2019-05-18T08:05:54.490Z,953.82
2019-05-18T08:06:54.457Z,953.88
2019-05-18T08:07:54.445Z,953.84
2019-05-18T08:08:54.440Z,953.86
2019-05-18T08:09:54.436Z,953.87
2019-05-18T08:10:54.436Z,953.92
2019-05-18T08:11:54.396Z,953.90
2019-05-18T08:12:54.398Z,953.82
2019-05-18T08:13:54.375Z,953.90
2019-05-18T08:14:54.377Z,953.84
2019-05-18T08:15:54.387Z,953.84
2019-05-18T08:16:54.359Z,953.79
2019-05-18T08:17:54.333Z,953.80
2019-05-18T08:18:54.346Z,953.81
2019-05-18T08:19:54.323Z,953.83
2019-05-18T08:20:54.325Z,953.84
2019-05-18T08:21:54.339Z,953.81
2019-05-18T08:22:54.303Z,953.83
2019-05-18T08:23:54.270Z,953.82
2019-05-18T08:24:54.887Z,953.81
2019-05-18T08:25:54.242Z,953.78
2019-05-18T08:26:54.260Z,953.77
2019-05-18T08:27:54.278Z,953.81
2019-05-18T08:28:54.234Z,953.78
2019-05-18T08:29:54.197Z,953.83
2019-05-18T08:30:54.898Z,953.76
2019-05-18T08:31:54.173Z,953.78
2019-05-18T08:32:54.198Z,953.74
2019-05-18T08:33:54.207Z,953.79
2019-05-18T08:34:54.175Z,953.75
2019-05-18T08:35:54.126Z,953.75
2019-05-18T08:36:54.917Z,953.74
2019-05-18T08:37:54.142Z,953.79
2019-05-18T08:38:54.101Z,953.73
2019-05-18T08:39:54.117Z,953.74
2019-05-18T08:40:54.070Z,953.69
2019-05-18T08:41:54.065Z,953.76
2019-05-18T08:42:54.420Z,953.73
2019-05-18T08:43:54.045Z,953.69
2019-05-18T08:44:54.043Z,953.73
2019-05-18T08:45:54.046Z,953.72
2019-05-18T08:46:54.008Z,953.69
2019-05-18T08:47:54.050Z,953.71
2019-05-18T08:48:54.019Z,953.72
2019-05-18T08:49:53.990Z,953.70
2019-05-18T08:50:53.989Z,953.76
2019-05-18T08:52:07.479Z,953.70
2019-05-18T08:52:53.947Z,953.73
2019-05-18T08:53:53.936Z,953.73
2019-05-18T08:54:54.920Z,953.68
2019-05-18T08:55:53.916Z,953.66
2019-05-18T08:56:53.920Z,953.66
2019-05-18T08:57:54.430Z,953.66
2019-05-18T08:58:53.881Z,953.68
2019-05-18T08:59:53.872Z,953.64
2019-05-18T09:00:53.873Z,953.65
2019-05-18T09:01:53.860Z,953.65
2019-05-18T09:02:53.837Z,953.68
2019-05-18T09:03:53.888Z,953.73
2019-05-18T09:04:53.801Z,953.68
2019-05-18T09:05:53.798Z,953.67
2019-05-18T09:06:53.820Z,953.67
2019-05-18T09:07:53.813Z,953.67
2019-05-18T09:08:53.787Z,953.70
2019-05-18T09:09:53.788Z,953.71
2019-05-18T09:10:53.733Z,953.66
2019-05-18T09:11:53.723Z,953.69
2019-05-18T09:12:53.718Z,953.64
2019-05-18T09:13:53.726Z,953.70
2019-05-18T09:14:53.734Z,953.73
2019-05-18T09:15:53.724Z,953.66
2019-05-18T09:16:53.690Z,953.66
2019-05-18T09:17:53.658Z,953.65
2019-05-18T09:18:53.677Z,953.63
2019-05-18T09:19:53.655Z,953.64
2019-05-18T09:20:53.642Z,953.67
2019-05-18T09:21:53.628Z,953.63
2019-05-18T09:22:53.605Z,953.64
2019-05-18T09:23:53.621Z,953.70
2019-05-18T09:24:53.596Z,953.71
2019-05-18T09:25:53.596Z,953.74
2019-05-18T09:26:53.557Z,953.75
2019-05-18T09:27:53.564Z,953.81
2019-05-18T09:28:53.552Z,953.81
2019-05-18T09:29:53.533Z,953.76
2019-05-18T09:30:53.534Z,953.76
2019-05-18T09:31:53.531Z,953.73
2019-05-18T09:32:53.494Z,953.70
2019-05-18T09:33:53.483Z,953.70
2019-05-18T09:34:53.495Z,953.69
2019-05-18T09:35:53.471Z,953.68
2019-05-18T09:36:53.457Z,953.70
2019-05-18T09:37:53.455Z,953.66
2019-05-18T09:38:53.430Z,953.66
2019-05-18T09:39:53.475Z,953.62
2019-05-18T09:40:53.403Z,953.62
2019-05-18T09:41:53.428Z,953.62
2019-05-18T09:42:53.407Z,953.61
2019-05-18T09:43:53.409Z,953.65
2019-05-18T09:44:53.364Z,953.68
2019-05-18T09:45:53.435Z,953.64
2019-05-18T09:46:53.351Z,953.69
2019-05-18T09:47:53.349Z,953.68
2019-05-18T09:48:53.347Z,953.62
2019-05-18T09:49:53.341Z,953.66
2019-05-18T09:50:53.288Z,953.62
2019-05-18T09:51:53.284Z,953.67
2019-05-18T09:52:53.269Z,953.70
2019-05-18T09:53:53.292Z,953.65
2019-05-18T09:54:53.271Z,953.60
2019-05-18T09:55:53.289Z,953.58
2019-05-18T09:56:53.230Z,953.57
2019-05-18T09:57:53.244Z,953.56
2019-05-18T09:58:53.205Z,953.53
2019-05-18T09:59:53.228Z,953.52
2019-05-18T10:00:53.202Z,953.49
2019-05-18T10:01:53.164Z,953.50
2019-05-18T10:02:53.155Z,953.52
2019-05-18T10:03:53.150Z,953.50
2019-05-18T10:04:53.176Z,953.49
2019-05-18T10:05:53.182Z,953.49
2019-05-18T10:06:53.125Z,953.48
2019-05-18T10:07:53.140Z,953.50
2019-05-18T10:08:53.160Z,953.49
2019-05-18T10:09:53.076Z,953.48
2019-05-18T10:10:53.074Z,953.48
2019-05-18T10:11:53.077Z,953.49
2019-05-18T10:12:53.039Z,953.51
2019-05-18T10:13:53.076Z,953.52
2019-05-18T10:14:53.032Z,953.59
2019-05-18T10:15:53.013Z,953.57
2019-05-18T10:16:53.033Z,953.56
2019-05-18T10:17:53.001Z,953.57
2019-05-18T10:18:53.015Z,953.56
2019-05-18T10:19:53.007Z,953.55
2019-05-18T10:20:52.948Z,953.59
2019-05-18T10:21:52.959Z,953.58
2019-05-18T10:22:59.308Z,953.57
2019-05-18T10:23:53.962Z,953.59
2019-05-18T10:24:52.903Z,953.57
2019-05-18T10:25:52.892Z,953.57
2019-05-18T10:26:52.880Z,953.60
2019-05-18T10:27:52.878Z,953.57
2019-05-18T10:28:52.876Z,953.54
2019-05-18T10:29:52.880Z,953.57
2019-05-18T10:30:52.833Z,953.59
2019-05-18T10:31:52.824Z,953.53
2019-05-18T10:32:52.811Z,953.52
2019-05-18T10:33:52.814Z,953.55
2019-05-18T10:34:52.812Z,953.53
2019-05-18T10:35:52.834Z,953.54
2019-05-18T10:36:52.769Z,953.48
2019-05-18T10:37:52.758Z,953.51
2019-05-18T10:38:52.757Z,953.44
2019-05-18T10:39:52.759Z,953.42
2019-05-18T10:40:52.753Z,953.50
2019-05-18T10:41:52.711Z,953.49
2019-05-18T10:42:52.705Z,953.44
2019-05-18T10:43:52.712Z,953.45
2019-05-18T10:44:52.707Z,953.47
2019-05-18T10:45:52.683Z,953.42
2019-05-18T10:46:52.680Z,953.47
2019-05-18T10:47:52.645Z,953.45
2019-05-18T10:48:52.630Z,953.48
2019-05-18T10:49:52.631Z,953.48
2019-05-18T10:50:52.649Z,953.55
2019-05-18T10:51:52.610Z,953.53
2019-05-18T10:52:52.610Z,953.54
2019-05-18T10:53:52.576Z,953.50
2019-05-18T10:54:52.573Z,953.48
2019-05-18T10:55:52.550Z,953.46
2019-05-18T10:56:52.563Z,953.48
2019-05-18T10:57:52.550Z,953.55
2019-05-18T10:58:52.555Z,953.45
2019-05-18T10:59:52.553Z,953.46
2019-05-18T11:00:52.510Z,953.41
2019-05-18T11:01:52.489Z,953.42
2019-05-18T11:02:52.490Z,953.47
2019-05-18T11:03:52.477Z,953.43
2019-05-18T11:04:52.456Z,953.42
2019-05-18T11:05:52.449Z,953.44
2019-05-18T11:06:52.448Z,953.46
2019-05-18T11:07:52.442Z,953.38
2019-05-18T11:08:52.434Z,953.38
2019-05-18T11:09:52.429Z,953.41
2019-05-18T11:10:52.417Z,953.37
2019-05-18T11:11:52.381Z,953.40
2019-05-18T11:12:52.366Z,953.36
2019-05-18T11:13:52.359Z,953.38
2019-05-18T11:14:52.365Z,953.29
2019-05-18T11:15:52.353Z,953.29
2019-05-18T11:16:52.356Z,953.31
2019-05-18T11:17:52.318Z,953.33
2019-05-18T11:18:52.304Z,953.30
2019-05-18T11:19:52.301Z,953.34
2019-05-18T11:20:52.313Z,953.35
2019-05-18T11:21:52.289Z,953.31
2019-05-18T11:22:52.251Z,953.28
2019-05-18T11:23:52.243Z,953.27
2019-05-18T11:24:52.229Z,953.26
2019-05-18T11:25:52.251Z,953.21
2019-05-18T11:26:52.224Z,953.20
2019-05-18T11:27:52.190Z,953.15
2019-05-18T11:28:52.191Z,953.18
2019-05-18T11:29:52.172Z,953.13
2019-05-18T11:30:52.164Z,953.13
2019-05-18T11:31:52.167Z,953.17
2019-05-18T11:32:52.151Z,953.12
2019-05-18T11:33:52.127Z,953.12
2019-05-18T11:34:52.138Z,953.11
2019-05-18T11:35:52.108Z,953.08
2019-05-18T11:36:52.121Z,953.08
2019-05-18T11:37:52.105Z,953.08
2019-05-18T11:38:52.093Z,953.07
2019-05-18T11:39:52.064Z,953.11
2019-05-18T11:40:52.047Z,953.07
2019-05-18T11:41:52.061Z,953.09
2019-05-18T11:42:52.068Z,953.06
2019-05-18T11:43:52.041Z,953.10
2019-05-18T11:44:52.053Z,953.06
2019-05-18T11:45:51.999Z,953.05
2019-05-18T11:46:52.006Z,953.05
2019-05-18T11:47:52.973Z,953.08
2019-05-18T11:48:51.963Z,953.09
2019-05-18T11:49:52.013Z,953.07
2019-05-18T11:50:51.984Z,953.03
2019-05-18T11:51:51.950Z,953.02
2019-05-18T11:52:51.926Z,953.04
2019-05-18T11:53:58.239Z,953.01
2019-05-18T11:54:51.904Z,953.06
2019-05-18T11:55:51.932Z,953.03
2019-05-18T11:56:51.905Z,953.00
2019-05-18T11:57:51.854Z,953.01
2019-05-18T11:58:51.863Z,953.03
2019-05-18T11:59:51.851Z,953.09
2019-05-18T12:00:51.855Z,953.07
2019-05-18T12:01:51.847Z,953.01
2019-05-18T12:02:51.843Z,953.01
2019-05-18T12:03:51.807Z,953.00
2019-05-18T12:04:51.791Z,953.01
2019-05-18T12:05:51.783Z,953.00
2019-05-18T12:06:51.783Z,952.99
2019-05-18T12:07:51.779Z,952.98
2019-05-18T12:08:51.740Z,953.00
2019-05-18T12:09:51.725Z,953.02
2019-05-18T12:10:52.252Z,953.02
2019-05-18T12:11:51.732Z,953.01
2019-05-18T12:12:51.706Z,953.06
2019-05-18T12:13:51.708Z,953.01
2019-05-18T12:14:51.663Z,953.01
2019-05-18T12:15:51.661Z,952.95
2019-05-18T12:16:51.647Z,952.96
2019-05-18T12:17:51.646Z,952.94
2019-05-18T12:18:51.641Z,953.01
2019-05-18T12:19:51.615Z,953.01
2019-05-18T12:20:51.598Z,952.97
2019-05-18T12:21:51.589Z,952.92
2019-05-18T12:22:51.605Z,952.94
2019-05-18T12:23:51.616Z,952.93
2019-05-18T12:24:51.573Z,952.91
2019-05-18T12:25:51.578Z,952.90
2019-05-18T12:26:51.543Z,952.96
2019-05-18T12:27:51.538Z,952.94
2019-05-18T12:28:51.520Z,952.95